createdAt,value
2022-11-17T00:04:16.608Z,-1.36
2022-11-17T00:09:20.509Z,-1.30
2022-11-17T00:14:34.125Z,-1.18
2022-11-17T00:19:54.899Z,-1.29
2022-11-17T00:24:58.295Z,-1.20
2022-11-17T00:30:03.269Z,-1.27
2022-11-17T00:35:08.431Z,-1.22
2022-11-17T00:40:12.762Z,-1.26
2022-11-17T00:45:17.590Z,-1.12
2022-11-17T00:50:20.848Z,-1.09
2022-11-17T00:55:24.212Z,-1.10
2022-11-17T01:00:29.159Z,-1.19
2022-11-17T01:05:33.256Z,-1.29
2022-11-17T01:10:36.972Z,-1.27
2022-11-17T01:15:41.643Z,-1.19
2022-11-17T01:20:45.209Z,-1.19
2022-11-17T01:25:48.745Z,-1.26
2022-11-17T01:31:00.594Z,-1.18
2022-11-17T01:36:04.925Z,-1.30
2022-11-17T01:41:13.702Z,-1.20
2022-11-17T01:46:30.639Z,-1.23
2022-11-17T01:51:37.393Z,-1.24
2022-11-17T01:56:46.041Z,-1.15
2022-11-17T02:01:56.931Z,-1.32
2022-11-17T02:07:04.808Z,-1.42
2022-11-17T02:12:10.616Z,-1.53
2022-11-17T02:17:15.716Z,-1.54
2022-11-17T02:22:41.801Z,-1.58
2022-11-17T02:28:06.211Z,-1.40
2022-11-17T02:33:17.891Z,-1.48
2022-11-17T02:38:33.148Z,-1.43
2022-11-17T02:44:02.356Z,-1.58
2022-11-17T02:49:10.041Z,-1.54
2022-11-17T02:54:14.033Z,-1.50
2022-11-17T02:59:23.234Z,-1.42
2022-11-17T03:04:32.832Z,-1.36
2022-11-17T03:09:47.824Z,-1.38
2022-11-17T03:15:03.330Z,-1.37
2022-11-17T03:20:15.421Z,-1.35
2022-11-17T03:25:22.126Z,-1.35
2022-11-17T03:30:33.276Z,-1.40
2022-11-17T03:35:49.317Z,-1.48
2022-11-17T03:40:57.661Z,-1.48
2022-11-17T03:46:07.124Z,-1.53
2022-11-17T03:51:14.658Z,-1.45
2022-11-17T03:56:36.635Z,-1.29
2022-11-17T04:01:41.892Z,-1.26
2022-11-17T04:06:45.376Z,-1.29
2022-11-17T04:12:08.234Z,-1.43
2022-11-17T04:17:13.165Z,-1.29
2022-11-17T04:22:16.360Z,-1.26
2022-11-17T04:27:37.355Z,-1.32
2022-11-17T04:32:42.034Z,-1.21
2022-11-17T04:37:45.495Z,-1.13
2022-11-17T04:42:48.866Z,-1.24
2022-11-17T04:47:53.554Z,-1.18
2022-11-17T04:52:56.996Z,-1.16
2022-11-17T04:58:00.562Z,-1.11
2022-11-17T05:03:05.231Z,-1.11
2022-11-17T05:08:08.509Z,-1.15
2022-11-17T05:13:25.421Z,-1.14
2022-11-17T05:18:30.314Z,-1.20
2022-11-17T05:23:50.955Z,-1.27
2022-11-17T05:28:55.723Z,-1.19
2022-11-17T05:34:00.542Z,-1.07
2022-11-17T05:39:05.084Z,-1.04
2022-11-17T05:44:08.531Z,-0.96
2022-11-17T05:49:13.472Z,-0.86
2022-11-17T05:54:16.898Z,-0.85
2022-11-17T05:59:27.987Z,-0.71
2022-11-17T06:04:33.736Z,-0.71
2022-11-17T06:09:40.831Z,-0.86
2022-11-17T06:14:44.493Z,-0.77
2022-11-17T06:19:53.685Z,-0.56
2022-11-17T06:24:58.216Z,-0.47
2022-11-17T06:30:03.518Z,-0.54
2022-11-17T06:35:11.604Z,-0.64
2022-11-17T06:40:15.387Z,-0.56
2022-11-17T06:45:18.868Z,-0.63
2022-11-17T06:50:23.800Z,-0.42
2022-11-17T06:55:27.200Z,-0.23
2022-11-17T07:00:31.504Z,-0.25
2022-11-17T07:05:40.325Z,-0.31
2022-11-17T07:10:49.145Z,-0.25
2022-11-17T07:15:53.502Z,0.02
2022-11-17T07:21:03.253Z,0.29
2022-11-17T07:26:07.323Z,0.48
2022-11-17T07:31:11.183Z,0.38
2022-11-17T07:36:16.828Z,0.36
2022-11-17T07:41:20.399Z,0.41
2022-11-17T07:46:23.753Z,0.50
2022-11-17T07:51:28.499Z,0.61
2022-11-17T07:56:32.189Z,0.52
2022-11-17T08:01:35.708Z,0.34
2022-11-17T08:06:40.806Z,0.44
2022-11-17T08:11:44.235Z,0.55
2022-11-17T08:16:47.804Z,0.71
2022-11-17T08:21:52.838Z,1.13
2022-11-17T08:26:57.081Z,0.79
2022-11-17T08:32:00.405Z,0.99
2022-11-17T08:37:05.353Z,1.61
2022-11-17T08:42:08.707Z,2.59
2022-11-17T08:47:12.092Z,1.71
2022-11-17T08:52:16.933Z,2.25
2022-11-17T08:57:22.501Z,2.21
2022-11-17T09:02:26.444Z,1.66
2022-11-17T09:07:34.986Z,1.97
2022-11-17T09:12:38.736Z,1.70
2022-11-17T09:17:43.714Z,1.27
2022-11-17T09:22:48.643Z,1.55
2022-11-17T09:27:52.654Z,1.68
2022-11-17T09:32:55.959Z,1.70
2022-11-17T09:38:02.261Z,1.16
2022-11-17T09:43:10.181Z,1.34
2022-11-17T09:48:40.372Z,0.99
2022-11-17T09:53:52.149Z,0.63
2022-11-17T09:59:00.249Z,0.39
2022-11-17T10:04:03.544Z,0.39
2022-11-17T10:09:24.053Z,0.47
2022-11-17T10:14:30.378Z,0.24
2022-11-17T10:19:35.230Z,0.45
2022-11-17T10:24:42.432Z,0.14
2022-11-17T10:29:58.016Z,-0.41
2022-11-17T10:35:16.081Z,-0.65
2022-11-17T10:40:25.584Z,-0.28
2022-11-17T10:45:29.965Z,-0.65
2022-11-17T10:50:33.330Z,-0.98
2022-11-17T10:55:39.528Z,-0.61
2022-11-17T11:00:44.749Z,-0.51
2022-11-17T11:06:07.378Z,-0.56
2022-11-17T11:11:19.477Z,-0.66
2022-11-17T11:16:23.225Z,-0.71
2022-11-17T11:21:47.207Z,-0.65
2022-11-17T11:27:05.463Z,-0.91
2022-11-17T11:32:21.818Z,-0.87
2022-11-17T11:37:31.077Z,-0.99
2022-11-17T11:42:47.166Z,-0.99
2022-11-17T11:48:08.584Z,-1.20
2022-11-17T11:53:19.860Z,-1.50
2022-11-17T11:58:26.167Z,-1.56
2022-11-17T12:03:36.024Z,-1.52
2022-11-17T12:08:49.669Z,-1.51
2022-11-17T12:13:55.568Z,-1.68
2022-11-17T12:18:59.234Z,-1.55
2022-11-17T12:24:16.285Z,-1.69
2022-11-17T12:29:35.357Z,-1.78
2022-11-17T12:34:39.442Z,-1.81
2022-11-17T12:40:30.433Z,-1.90
2022-11-17T12:45:56.015Z,-2.01
2022-11-17T12:51:06.381Z,-1.82
2022-11-17T12:57:00.403Z,-2.16
2022-11-17T13:02:23.533Z,-2.23
2022-11-17T13:07:28.226Z,-2.50
2022-11-17T13:12:31.798Z,-2.68
2022-11-17T13:17:43.326Z,-2.79
2022-11-17T13:23:00.380Z,-2.86
2022-11-17T13:28:05.568Z,-2.91
2022-11-17T13:33:12.173Z,-3.08
2022-11-17T13:38:21.144Z,-3.11
2022-11-17T13:43:26.942Z,-2.99
2022-11-17T13:48:36.894Z,-3.13
2022-11-17T13:53:44.512Z,-3.19
2022-11-17T13:58:50.528Z,-3.29
2022-11-17T14:04:19.590Z,-3.59
2022-11-17T14:09:23.963Z,-3.85
2022-11-17T14:14:35.525Z,-4.04
2022-11-17T14:19:40.358Z,-4.12
2022-11-17T14:24:45.347Z,-4.32
2022-11-17T14:29:48.736Z,-4.31
2022-11-17T14:34:53.521Z,-4.47
2022-11-17T14:39:57.066Z,-4.61
2022-11-17T14:45:00.494Z,-4.70
2022-11-17T14:50:05.524Z,-4.87
2022-11-17T14:55:09.740Z,-4.98
2022-11-17T15:00:19.935Z,-5.10
2022-11-17T15:05:26.403Z,-5.24
2022-11-17T15:10:29.923Z,-5.21
2022-11-17T15:15:33.301Z,-5.32
2022-11-17T15:20:38.264Z,-5.47
2022-11-17T15:25:41.467Z,-5.38
2022-11-17T15:30:44.983Z,-5.30
2022-11-17T15:35:49.946Z,-5.45
2022-11-17T15:40:54.971Z,-5.47
2022-11-17T15:46:02.624Z,-5.47
2022-11-17T15:51:09.472Z,-5.43
2022-11-17T15:56:14.025Z,-5.58
2022-11-17T16:01:26.412Z,-5.61
2022-11-17T16:06:32.563Z,-5.89
2022-11-17T16:11:36.830Z,-5.83
2022-11-17T16:16:40.905Z,-5.69
2022-11-17T16:21:46.049Z,-5.36
2022-11-17T16:26:49.724Z,-5.14
2022-11-17T16:31:53.331Z,-4.99
2022-11-17T16:36:58.483Z,-4.90
2022-11-17T16:42:02.070Z,-4.81
2022-11-17T16:47:05.561Z,-4.92
2022-11-17T16:52:10.397Z,-4.87
2022-11-17T16:57:14.012Z,-4.89
2022-11-17T17:02:17.215Z,-4.90
2022-11-17T17:07:22.154Z,-4.92
2022-11-17T17:12:26.214Z,-4.78
2022-11-17T17:17:29.844Z,-4.72
2022-11-17T17:22:34.853Z,-4.80
2022-11-17T17:27:38.437Z,-4.81
2022-11-17T17:32:41.677Z,-4.78
2022-11-17T17:37:46.365Z,-4.73
2022-11-17T17:42:49.366Z,-4.69
2022-11-17T17:47:52.835Z,-4.83
2022-11-17T17:52:57.694Z,-4.74
2022-11-17T17:58:01.233Z,-4.75
2022-11-17T18:03:04.689Z,-4.68
2022-11-17T18:08:09.878Z,-4.73
2022-11-17T18:13:13.150Z,-4.62
2022-11-17T18:18:16.846Z,-4.66
2022-11-17T18:23:21.597Z,-4.49
2022-11-17T18:28:24.834Z,-4.44
2022-11-17T18:33:29.371Z,-4.67
2022-11-17T18:38:34.895Z,-4.73
2022-11-17T18:43:39.163Z,-4.85
2022-11-17T18:48:44.496Z,-4.96
2022-11-17T18:53:49.758Z,-4.82
2022-11-17T18:58:53.967Z,-4.92
2022-11-17T19:04:01.089Z,-5.21
2022-11-17T19:09:06.478Z,-5.08
2022-11-17T19:14:09.703Z,-5.10
2022-11-17T19:19:14.749Z,-5.14
2022-11-17T19:24:20.058Z,-5.05
2022-11-17T19:29:23.702Z,-5.15
2022-11-17T19:34:27.306Z,-5.17
2022-11-17T19:39:32.084Z,-4.99
2022-11-17T19:44:35.318Z,-5.03
2022-11-17T19:49:38.981Z,-5.15
2022-11-17T19:54:43.633Z,-5.20
2022-11-17T19:59:46.928Z,-5.19
2022-11-17T20:04:50.263Z,-5.17
2022-11-17T20:09:55.254Z,-5.17
2022-11-17T20:14:58.795Z,-5.17
2022-11-17T20:20:02.249Z,-5.11
2022-11-17T20:25:08.229Z,-5.27
2022-11-17T20:30:15.352Z,-5.04
2022-11-17T20:35:18.957Z,-5.03
2022-11-17T20:40:23.908Z,-5.11
2022-11-17T20:45:27.377Z,-5.12
2022-11-17T20:50:32.329Z,-5.22
2022-11-17T20:55:37.169Z,-5.13
2022-11-17T21:00:40.696Z,-4.92
2022-11-17T21:05:44.222Z,-4.99
2022-11-17T21:10:49.098Z,-4.83
2022-11-17T21:16:07.307Z,-4.85
2022-11-17T21:21:11.568Z,-4.78
2022-11-17T21:26:18.162Z,-4.70
2022-11-17T21:31:23.958Z,-4.86
2022-11-17T21:36:28.942Z,-4.91
2022-11-17T21:41:36.409Z,-4.89
2022-11-17T21:46:39.611Z,-5.00
2022-11-17T21:51:43.062Z,-5.16
2022-11-17T21:56:47.967Z,-5.00
2022-11-17T22:01:51.209Z,-5.00
2022-11-17T22:06:54.748Z,-5.05
2022-11-17T22:11:59.444Z,-4.99
2022-11-17T22:17:02.625Z,-5.01
2022-11-17T22:22:06.345Z,-5.03
2022-11-17T22:27:11.219Z,-5.04
2022-11-17T22:32:14.394Z,-5.13
2022-11-17T22:37:17.867Z,-5.15
2022-11-17T22:42:22.620Z,-5.09
2022-11-17T22:47:25.658Z,-5.09
2022-11-17T22:52:29.019Z,-5.31
2022-11-17T22:57:33.858Z,-5.20
2022-11-17T23:02:37.418Z,-5.30
2022-11-17T23:07:41.074Z,-5.38
2022-11-17T23:12:45.730Z,-5.36
2022-11-17T23:17:49.427Z,-5.32
2022-11-17T23:22:54.153Z,-5.26
2022-11-17T23:27:59.049Z,-5.28
2022-11-17T23:33:02.435Z,-5.52
2022-11-17T23:38:06.026Z,-5.43
2022-11-17T23:43:10.537Z,-5.43
2022-11-17T23:48:13.981Z,-5.45
2022-11-17T23:53:17.201Z,-5.41
2022-11-17T23:58:22.090Z,-5.26
